sensor_id;sensor_type;location;lat;lon;timestamp;P1;durP1;ratioP1;P2;durP2;ratioP2
79697;SDS011;69168;42.708;23.286;2023-06-26T00:01:30;20.75;;;14.85;;
79697;SDS011;69168;42.708;23.286;2023-06-26T00:03:58;20.05;;;14.43;;
79697;SDS011;69168;42.708;23.286;2023-06-26T00:06:24;20.15;;;14.98;;
79697;SDS011;69168;42.708;23.286;2023-06-26T00:08:51;22.42;;;15.00;;
79697;SDS011;69168;42.708;23.286;2023-06-26T00:11:18;19.75;;;14.20;;
79697;SDS011;69168;42.708;23.286;2023-06-26T00:13:44;19.20;;;13.25;;
79697;SDS011;69168;42.708;23.286;2023-06-26T00:16:09;18.45;;;13.35;;
79697;SDS011;69168;42.708;23.286;2023-06-26T00:18:35;19.15;;;14.50;;
79697;SDS011;69168;42.708;23.286;2023-06-26T00:21:00;16.65;;;12.68;;
79697;SDS011;69168;42.708;23.286;2023-06-26T00:23:25;19.38;;;12.98;;
79697;SDS011;69168;42.708;23.286;2023-06-26T00:25:52;17.20;;;12.75;;
79697;SDS011;69168;42.708;23.286;2023-06-26T00:28:18;17.77;;;13.32;;
79697;SDS011;69168;42.708;23.286;2023-06-26T00:30:44;20.98;;;13.23;;
79697;SDS011;69168;42.708;23.286;2023-06-26T00:33:09;16.60;;;11.77;;
79697;SDS011;69168;42.708;23.286;2023-06-26T00:35:34;18.45;;;13.40;;
79697;SDS011;69168;42.708;23.286;2023-06-26T00:38:00;19.58;;;13.13;;
79697;SDS011;69168;42.708;23.286;2023-06-26T00:40:26;16.35;;;12.48;;
79697;SDS011;69168;42.708;23.286;2023-06-26T00:42:52;17.50;;;12.55;;
79697;SDS011;69168;42.708;23.286;2023-06-26T00:45:18;17.52;;;12.90;;
79697;SDS011;69168;42.708;23.286;2023-06-26T00:47:43;18.25;;;12.90;;
79697;SDS011;69168;42.708;23.286;2023-06-26T00:50:09;20.00;;;13.15;;
79697;SDS011;69168;42.708;23.286;2023-06-26T00:52:35;15.50;;;12.25;;
79697;SDS011;69168;42.708;23.286;2023-06-26T00:57:27;17.45;;;11.90;;
79697;SDS011;69168;42.708;23.286;2023-06-26T00:59:52;14.93;;;11.75;;
79697;SDS011;69168;42.708;23.286;2023-06-26T01:02:18;15.73;;;10.90;;
79697;SDS011;69168;42.708;23.286;2023-06-26T01:04:51;15.43;;;11.77;;
79697;SDS011;69168;42.708;23.286;2023-06-26T01:07:18;17.08;;;12.65;;
79697;SDS011;69168;42.708;23.286;2023-06-26T01:09:48;15.80;;;11.82;;
79697;SDS011;69168;42.708;23.286;2023-06-26T01:12:14;16.13;;;11.90;;
79697;SDS011;69168;42.708;23.286;2023-06-26T01:14:40;14.10;;;11.80;;
79697;SDS011;69168;42.708;23.286;2023-06-26T01:17:06;17.20;;;11.48;;
79697;SDS011;69168;42.708;23.286;2023-06-26T01:19:36;15.65;;;11.82;;
79697;SDS011;69168;42.708;23.286;2023-06-26T01:22:08;13.43;;;11.35;;
79697;SDS011;69168;42.708;23.286;2023-06-26T01:30:08;14.35;;;11.15;;
79697;SDS011;69168;42.708;23.286;2023-06-26T01:32:35;16.70;;;11.80;;
79697;SDS011;69168;42.708;23.286;2023-06-26T01:35:01;14.63;;;12.13;;
79697;SDS011;69168;42.708;23.286;2023-06-26T01:39:53;16.30;;;12.03;;
79697;SDS011;69168;42.708;23.286;2023-06-26T01:42:19;15.80;;;11.77;;
79697;SDS011;69168;42.708;23.286;2023-06-26T01:44:45;16.33;;;11.90;;
79697;SDS011;69168;42.708;23.286;2023-06-26T01:47:12;15.75;;;11.52;;
79697;SDS011;69168;42.708;23.286;2023-06-26T01:52:32;20.58;;;13.73;;
79697;SDS011;69168;42.708;23.286;2023-06-26T01:58:01;16.65;;;12.27;;
79697;SDS011;69168;42.708;23.286;2023-06-26T02:00:26;17.65;;;11.93;;
79697;SDS011;69168;42.708;23.286;2023-06-26T02:02:53;15.07;;;11.88;;
79697;SDS011;69168;42.708;23.286;2023-06-26T02:05:18;16.10;;;12.77;;
79697;SDS011;69168;42.708;23.286;2023-06-26T02:07:44;16.30;;;12.60;;
79697;SDS011;69168;42.708;23.286;2023-06-26T02:10:10;16.63;;;12.18;;
79697;SDS011;69168;42.708;23.286;2023-06-26T02:12:36;19.33;;;13.15;;
79697;SDS011;69168;42.708;23.286;2023-06-26T02:15:02;16.27;;;12.50;;
79697;SDS011;69168;42.708;23.286;2023-06-26T02:19:54;16.58;;;12.13;;
79697;SDS011;69168;42.708;23.286;2023-06-26T02:22:20;19.65;;;13.75;;
79697;SDS011;69168;42.708;23.286;2023-06-26T02:24:45;17.85;;;13.80;;
79697;SDS011;69168;42.708;23.286;2023-06-26T02:27:11;17.73;;;12.98;;
79697;SDS011;69168;42.708;23.286;2023-06-26T02:29:36;15.35;;;12.38;;
79697;SDS011;69168;42.708;23.286;2023-06-26T02:32:02;18.48;;;14.63;;
79697;SDS011;69168;42.708;23.286;2023-06-26T02:34:27;16.20;;;13.43;;
79697;SDS011;69168;42.708;23.286;2023-06-26T02:36:54;19.35;;;14.90;;
79697;SDS011;69168;42.708;23.286;2023-06-26T02:39:20;23.45;;;15.90;;
79697;SDS011;69168;42.708;23.286;2023-06-26T02:41:46;20.98;;;16.30;;
79697;SDS011;69168;42.708;23.286;2023-06-26T02:44:11;22.08;;;15.57;;
79697;SDS011;69168;42.708;23.286;2023-06-26T02:46:37;23.85;;;16.50;;
79697;SDS011;69168;42.708;23.286;2023-06-26T02:49:03;22.92;;;16.85;;
79697;SDS011;69168;42.708;23.286;2023-06-26T02:51:29;26.95;;;17.13;;
79697;SDS011;69168;42.708;23.286;2023-06-26T02:53:56;22.08;;;16.23;;
79697;SDS011;69168;42.708;23.286;2023-06-26T02:56:21;22.40;;;15.90;;
79697;SDS011;69168;42.708;23.286;2023-06-26T02:58:47;24.63;;;17.27;;
79697;SDS011;69168;42.708;23.286;2023-06-26T03:01:12;22.45;;;16.85;;
79697;SDS011;69168;42.708;23.286;2023-06-26T03:03:38;20.33;;;15.23;;
79697;SDS011;69168;42.708;23.286;2023-06-26T03:06:08;21.65;;;16.33;;
79697;SDS011;69168;42.708;23.286;2023-06-26T03:08:37;24.08;;;16.73;;
79697;SDS011;69168;42.708;23.286;2023-06-26T03:11:04;25.23;;;16.83;;
79697;SDS011;69168;42.708;23.286;2023-06-26T03:13:30;21.25;;;16.45;;
79697;SDS011;69168;42.708;23.286;2023-06-26T03:15:56;21.77;;;17.20;;
79697;SDS011;69168;42.708;23.286;2023-06-26T03:18:22;20.95;;;16.00;;
79697;SDS011;69168;42.708;23.286;2023-06-26T03:20:47;24.08;;;17.52;;
79697;SDS011;69168;42.708;23.286;2023-06-26T03:23:13;23.00;;;17.00;;
79697;SDS011;69168;42.708;23.286;2023-06-26T03:25:38;23.05;;;17.88;;
79697;SDS011;69168;42.708;23.286;2023-06-26T03:28:04;21.60;;;16.73;;
79697;SDS011;69168;42.708;23.286;2023-06-26T03:30:29;21.58;;;17.02;;
79697;SDS011;69168;42.708;23.286;2023-06-26T03:32:55;24.15;;;17.85;;
79697;SDS011;69168;42.708;23.286;2023-06-26T03:35:20;22.83;;;14.73;;
79697;SDS011;69168;42.708;23.286;2023-06-26T03:37:46;23.38;;;17.02;;
79697;SDS011;69168;42.708;23.286;2023-06-26T03:40:11;23.15;;;17.15;;
79697;SDS011;69168;42.708;23.286;2023-06-26T03:42:37;25.35;;;17.60;;
79697;SDS011;69168;42.708;23.286;2023-06-26T03:45:02;23.65;;;16.48;;
79697;SDS011;69168;42.708;23.286;2023-06-26T03:47:28;24.45;;;17.85;;
79697;SDS011;69168;42.708;23.286;2023-06-26T03:49:53;21.40;;;17.13;;
79697;SDS011;69168;42.708;23.286;2023-06-26T03:52:19;25.63;;;17.73;;
79697;SDS011;69168;42.708;23.286;2023-06-26T03:54:44;25.25;;;17.55;;
79697;SDS011;69168;42.708;23.286;2023-06-26T03:57:10;24.50;;;17.98;;
79697;SDS011;69168;42.708;23.286;2023-06-26T03:59:36;21.23;;;16.50;;
79697;SDS011;69168;42.708;23.286;2023-06-26T04:02:01;21.67;;;15.82;;
79697;SDS011;69168;42.708;23.286;2023-06-26T04:04:28;21.65;;;16.55;;
79697;SDS011;69168;42.708;23.286;2023-06-26T04:06:53;24.60;;;17.17;;
79697;SDS011;69168;42.708;23.286;2023-06-26T04:09:19;22.73;;;17.42;;
79697;SDS011;69168;42.708;23.286;2023-06-26T04:11:44;24.08;;;17.75;;
79697;SDS011;69168;42.708;23.286;2023-06-26T04:14:10;24.48;;;17.75;;
79697;SDS011;69168;42.708;23.286;2023-06-26T04:16:35;23.70;;;17.63;;
79697;SDS011;69168;42.708;23.286;2023-06-26T04:19:01;26.83;;;17.65;;
79697;SDS011;69168;42.708;23.286;2023-06-26T04:21:27;25.00;;;18.70;;
79697;SDS011;69168;42.708;23.286;2023-06-26T04:23:52;21.63;;;16.83;;
79697;SDS011;69168;42.708;23.286;2023-06-26T04:26:18;18.55;;;15.40;;
79697;SDS011;69168;42.708;23.286;2023-06-26T04:28:43;21.83;;;16.33;;
79697;SDS011;69168;42.708;23.286;2023-06-26T04:31:09;28.40;;;18.30;;
79697;SDS011;69168;42.708;23.286;2023-06-26T04:33:35;26.02;;;17.75;;
79697;SDS011;69168;42.708;23.286;2023-06-26T04:38:28;23.88;;;17.63;;
79697;SDS011;69168;42.708;23.286;2023-06-26T04:40:54;21.05;;;15.95;;
79697;SDS011;69168;42.708;23.286;2023-06-26T04:43:19;21.55;;;15.75;;
79697;SDS011;69168;42.708;23.286;2023-06-26T04:45:44;25.13;;;16.40;;
79697;SDS011;69168;42.708;23.286;2023-06-26T04:48:10;19.52;;;15.57;;
79697;SDS011;69168;42.708;23.286;2023-06-26T04:50:35;19.65;;;15.10;;
79697;SDS011;69168;42.708;23.286;2023-06-26T04:53:01;23.13;;;14.88;;
79697;SDS011;69168;42.708;23.286;2023-06-26T04:55:27;20.10;;;15.52;;
79697;SDS011;69168;42.708;23.286;2023-06-26T04:57:53;22.27;;;15.68;;
79697;SDS011;69168;42.708;23.286;2023-06-26T05:00:18;22.70;;;16.40;;
79697;SDS011;69168;42.708;23.286;2023-06-26T05:02:44;22.70;;;16.13;;
79697;SDS011;69168;42.708;23.286;2023-06-26T05:05:10;17.92;;;15.52;;
79697;SDS011;69168;42.708;23.286;2023-06-26T05:07:36;19.27;;;15.57;;
79697;SDS011;69168;42.708;23.286;2023-06-26T05:10:02;20.25;;;15.13;;
79697;SDS011;69168;42.708;23.286;2023-06-26T05:12:28;20.75;;;15.82;;
79697;SDS011;69168;42.708;23.286;2023-06-26T05:14:53;19.13;;;14.70;;
79697;SDS011;69168;42.708;23.286;2023-06-26T05:17:19;18.23;;;14.27;;
79697;SDS011;69168;42.708;23.286;2023-06-26T05:19:44;20.85;;;14.80;;
79697;SDS011;69168;42.708;23.286;2023-06-26T05:22:10;18.75;;;15.55;;
79697;SDS011;69168;42.708;23.286;2023-06-26T05:24:37;18.58;;;14.10;;
79697;SDS011;69168;42.708;23.286;2023-06-26T05:27:04;18.98;;;14.55;;
79697;SDS011;69168;42.708;23.286;2023-06-26T05:29:30;18.83;;;14.90;;
79697;SDS011;69168;42.708;23.286;2023-06-26T05:31:56;19.25;;;14.57;;
79697;SDS011;69168;42.708;23.286;2023-06-26T05:34:22;20.80;;;15.93;;
79697;SDS011;69168;42.708;23.286;2023-06-26T05:36:52;22.38;;;14.68;;
79697;SDS011;69168;42.708;23.286;2023-06-26T05:39:23;18.17;;;14.52;;
79697;SDS011;69168;42.708;23.286;2023-06-26T05:41:49;21.10;;;15.00;;
79697;SDS011;69168;42.708;23.286;2023-06-26T05:44:16;20.80;;;14.57;;
79697;SDS011;69168;42.708;23.286;2023-06-26T05:46:41;20.60;;;14.98;;
79697;SDS011;69168;42.708;23.286;2023-06-26T05:49:08;18.92;;;14.13;;
79697;SDS011;69168;42.708;23.286;2023-06-26T05:51:33;18.17;;;14.38;;
79697;SDS011;69168;42.708;23.286;2023-06-26T05:53:59;19.20;;;14.13;;
79697;SDS011;69168;42.708;23.286;2023-06-26T05:56:25;16.85;;;13.63;;
79697;SDS011;69168;42.708;23.286;2023-06-26T05:58:51;18.27;;;14.85;;
79697;SDS011;69168;42.708;23.286;2023-06-26T06:01:18;18.45;;;14.40;;
79697;SDS011;69168;42.708;23.286;2023-06-26T06:03:44;17.95;;;12.70;;
79697;SDS011;69168;42.708;23.286;2023-06-26T06:06:10;18.55;;;14.90;;
79697;SDS011;69168;42.708;23.286;2023-06-26T06:08:36;18.23;;;12.45;;
79697;SDS011;69168;42.708;23.286;2023-06-26T06:11:01;20.33;;;14.30;;
79697;SDS011;69168;42.708;23.286;2023-06-26T06:13:27;15.40;;;12.98;;
79697;SDS011;69168;42.708;23.286;2023-06-26T06:15:53;16.13;;;12.80;;
79697;SDS011;69168;42.708;23.286;2023-06-26T06:18:18;17.15;;;13.32;;
79697;SDS011;69168;42.708;23.286;2023-06-26T06:20:44;18.17;;;13.25;;
79697;SDS011;69168;42.708;23.286;2023-06-26T06:23:10;17.80;;;13.80;;
79697;SDS011;69168;42.708;23.286;2023-06-26T06:25:35;18.95;;;13.07;;
79697;SDS011;69168;42.708;23.286;2023-06-26T06:28:01;20.67;;;13.55;;
79697;SDS011;69168;42.708;23.286;2023-06-26T06:30:26;15.63;;;12.52;;
79697;SDS011;69168;42.708;23.286;2023-06-26T06:32:52;15.40;;;12.98;;
79697;SDS011;69168;42.708;23.286;2023-06-26T06:35:18;16.50;;;12.82;;
79697;SDS011;69168;42.708;23.286;2023-06-26T06:37:44;15.02;;;12.10;;
79697;SDS011;69168;42.708;23.286;2023-06-26T06:40:09;15.02;;;11.82;;
79697;SDS011;69168;42.708;23.286;2023-06-26T06:42:35;14.75;;;11.43;;
79697;SDS011;69168;42.708;23.286;2023-06-26T06:45:04;13.00;;;10.25;;
79697;SDS011;69168;42.708;23.286;2023-06-26T06:47:31;12.23;;;10.82;;
79697;SDS011;69168;42.708;23.286;2023-06-26T06:49:57;12.88;;;11.00;;
79697;SDS011;69168;42.708;23.286;2023-06-26T06:52:22;13.50;;;10.98;;
79697;SDS011;69168;42.708;23.286;2023-06-26T06:54:55;13.30;;;10.18;;
79697;SDS011;69168;42.708;23.286;2023-06-26T06:57:24;13.32;;;9.70;;
79697;SDS011;69168;42.708;23.286;2023-06-26T06:59:50;11.07;;;9.32;;
79697;SDS011;69168;42.708;23.286;2023-06-26T07:02:18;13.40;;;8.93;;
79697;SDS011;69168;42.708;23.286;2023-06-26T07:04:43;11.52;;;8.70;;
79697;SDS011;69168;42.708;23.286;2023-06-26T07:07:09;10.95;;;9.05;;
79697;SDS011;69168;42.708;23.286;2023-06-26T07:09:35;14.57;;;8.98;;
79697;SDS011;69168;42.708;23.286;2023-06-26T07:12:03;10.80;;;9.32;;
79697;SDS011;69168;42.708;23.286;2023-06-26T07:14:29;12.02;;;9.63;;
79697;SDS011;69168;42.708;23.286;2023-06-26T07:16:55;11.75;;;9.18;;
79697;SDS011;69168;42.708;23.286;2023-06-26T07:19:20;12.38;;;9.77;;
79697;SDS011;69168;42.708;23.286;2023-06-26T07:21:46;13.00;;;8.60;;
79697;SDS011;69168;42.708;23.286;2023-06-26T07:24:12;11.00;;;8.60;;
79697;SDS011;69168;42.708;23.286;2023-06-26T07:26:37;10.55;;;8.13;;
79697;SDS011;69168;42.708;23.286;2023-06-26T07:29:03;9.05;;;7.00;;
79697;SDS011;69168;42.708;23.286;2023-06-26T07:31:29;8.00;;;6.43;;
79697;SDS011;69168;42.708;23.286;2023-06-26T07:33:54;10.30;;;6.55;;
79697;SDS011;69168;42.708;23.286;2023-06-26T07:36:20;8.52;;;6.25;;
79697;SDS011;69168;42.708;23.286;2023-06-26T07:38:45;9.27;;;6.93;;
79697;SDS011;69168;42.708;23.286;2023-06-26T07:41:10;12.93;;;8.60;;
79697;SDS011;69168;42.708;23.286;2023-06-26T07:43:36;9.98;;;7.28;;
79697;SDS011;69168;42.708;23.286;2023-06-26T07:46:01;9.13;;;7.53;;
79697;SDS011;69168;42.708;23.286;2023-06-26T07:48:27;10.48;;;8.27;;
79697;SDS011;69168;42.708;23.286;2023-06-26T07:50:52;10.13;;;8.48;;
79697;SDS011;69168;42.708;23.286;2023-06-26T07:53:18;8.73;;;7.82;;
79697;SDS011;69168;42.708;23.286;2023-06-26T07:55:44;8.90;;;7.97;;
79697;SDS011;69168;42.708;23.286;2023-06-26T07:58:09;11.32;;;8.60;;
79697;SDS011;69168;42.708;23.286;2023-06-26T08:00:35;12.02;;;8.52;;
79697;SDS011;69168;42.708;23.286;2023-06-26T08:03:00;10.57;;;8.38;;
79697;SDS011;69168;42.708;23.286;2023-06-26T08:05:26;9.85;;;8.15;;
79697;SDS011;69168;42.708;23.286;2023-06-26T08:07:51;10.30;;;7.53;;
79697;SDS011;69168;42.708;23.286;2023-06-26T08:10:17;8.82;;;6.50;;
79697;SDS011;69168;42.708;23.286;2023-06-26T08:12:42;9.20;;;7.53;;
79697;SDS011;69168;42.708;23.286;2023-06-26T08:15:10;9.30;;;7.45;;
79697;SDS011;69168;42.708;23.286;2023-06-26T08:17:36;7.95;;;7.15;;
79697;SDS011;69168;42.708;23.286;2023-06-26T08:20:03;10.30;;;7.18;;
79697;SDS011;69168;42.708;23.286;2023-06-26T08:22:29;9.98;;;7.15;;
79697;SDS011;69168;42.708;23.286;2023-06-26T08:24:54;6.90;;;6.20;;
79697;SDS011;69168;42.708;23.286;2023-06-26T08:27:20;8.07;;;6.47;;
79697;SDS011;69168;42.708;23.286;2023-06-26T08:29:45;7.28;;;6.55;;
79697;SDS011;69168;42.708;23.286;2023-06-26T08:32:11;7.88;;;6.15;;
79697;SDS011;69168;42.708;23.286;2023-06-26T08:34:36;8.40;;;5.97;;
79697;SDS011;69168;42.708;23.286;2023-06-26T08:37:02;8.48;;;6.53;;
79697;SDS011;69168;42.708;23.286;2023-06-26T08:39:27;8.35;;;6.45;;
79697;SDS011;69168;42.708;23.286;2023-06-26T08:41:53;9.23;;;7.18;;
79697;SDS011;69168;42.708;23.286;2023-06-26T08:44:19;7.97;;;6.53;;
79697;SDS011;69168;42.708;23.286;2023-06-26T08:46:48;9.63;;;5.90;;
79697;SDS011;69168;42.708;23.286;2023-06-26T08:49:14;7.90;;;6.47;;
79697;SDS011;69168;42.708;23.286;2023-06-26T08:51:50;8.70;;;6.13;;
79697;SDS011;69168;42.708;23.286;2023-06-26T08:54:22;6.97;;;5.45;;
79697;SDS011;69168;42.708;23.286;2023-06-26T08:56:53;8.05;;;5.95;;
79697;SDS011;69168;42.708;23.286;2023-06-26T08:59:20;8.85;;;6.15;;
79697;SDS011;69168;42.708;23.286;2023-06-26T09:01:46;7.10;;;6.07;;
79697;SDS011;69168;42.708;23.286;2023-06-26T09:04:12;7.13;;;5.90;;
79697;SDS011;69168;42.708;23.286;2023-06-26T09:09:04;9.88;;;7.22;;
79697;SDS011;69168;42.708;23.286;2023-06-26T09:11:30;7.78;;;6.03;;
79697;SDS011;69168;42.708;23.286;2023-06-26T09:13:55;9.75;;;5.95;;
79697;SDS011;69168;42.708;23.286;2023-06-26T09:16:24;7.90;;;6.10;;
79697;SDS011;69168;42.708;23.286;2023-06-26T09:18:51;7.68;;;5.80;;
79697;SDS011;69168;42.708;23.286;2023-06-26T09:21:17;9.88;;;5.90;;
79697;SDS011;69168;42.708;23.286;2023-06-26T09:23:43;9.60;;;5.50;;
79697;SDS011;69168;42.708;23.286;2023-06-26T09:26:08;7.60;;;5.20;;
79697;SDS011;69168;42.708;23.286;2023-06-26T09:28:35;9.52;;;5.65;;
79697;SDS011;69168;42.708;23.286;2023-06-26T09:31:04;6.00;;;5.22;;
79697;SDS011;69168;42.708;23.286;2023-06-26T09:33:34;7.82;;;5.30;;
79697;SDS011;69168;42.708;23.286;2023-06-26T09:36:18;8.45;;;5.53;;
79697;SDS011;69168;42.708;23.286;2023-06-26T09:38:45;10.13;;;5.68;;
79697;SDS011;69168;42.708;23.286;2023-06-26T09:41:10;8.82;;;5.38;;
79697;SDS011;69168;42.708;23.286;2023-06-26T09:43:45;9.63;;;5.32;;
79697;SDS011;69168;42.708;23.286;2023-06-26T09:46:17;8.50;;;5.82;;
79697;SDS011;69168;42.708;23.286;2023-06-26T09:49:04;6.90;;;5.50;;
79697;SDS011;69168;42.708;23.286;2023-06-26T09:51:31;7.03;;;4.95;;
79697;SDS011;69168;42.708;23.286;2023-06-26T09:53:58;6.43;;;5.68;;
79697;SDS011;69168;42.708;23.286;2023-06-26T09:56:26;6.45;;;4.65;;
79697;SDS011;69168;42.708;23.286;2023-06-26T09:58:54;6.22;;;4.82;;
79697;SDS011;69168;42.708;23.286;2023-06-26T10:01:21;6.13;;;4.70;;
79697;SDS011;69168;42.708;23.286;2023-06-26T10:03:47;6.95;;;4.75;;
79697;SDS011;69168;42.708;23.286;2023-06-26T10:06:12;7.68;;;5.68;;
79697;SDS011;69168;42.708;23.286;2023-06-26T10:08:39;7.68;;;5.88;;
79697;SDS011;69168;42.708;23.286;2023-06-26T10:11:08;8.68;;;5.88;;
79697;SDS011;69168;42.708;23.286;2023-06-26T10:13:39;7.97;;;6.07;;
79697;SDS011;69168;42.708;23.286;2023-06-26T10:16:10;6.20;;;4.78;;
79697;SDS011;69168;42.708;23.286;2023-06-26T10:18:36;6.95;;;5.75;;
79697;SDS011;69168;42.708;23.286;2023-06-26T10:21:04;7.85;;;5.20;;
79697;SDS011;69168;42.708;23.286;2023-06-26T10:23:32;7.85;;;5.50;;
79697;SDS011;69168;42.708;23.286;2023-06-26T10:26:00;8.95;;;5.35;;
79697;SDS011;69168;42.708;23.286;2023-06-26T10:28:26;9.20;;;5.07;;
79697;SDS011;69168;42.708;23.286;2023-06-26T10:30:54;7.18;;;6.43;;
79697;SDS011;69168;42.708;23.286;2023-06-26T10:33:21;6.63;;;4.72;;
79697;SDS011;69168;42.708;23.286;2023-06-26T10:35:47;5.47;;;4.88;;
79697;SDS011;69168;42.708;23.286;2023-06-26T10:38:13;11.80;;;6.32;;
79697;SDS011;69168;42.708;23.286;2023-06-26T10:43:11;9.57;;;5.30;;
79697;SDS011;69168;42.708;23.286;2023-06-26T10:45:44;7.65;;;6.28;;
79697;SDS011;69168;42.708;23.286;2023-06-26T10:48:22;7.43;;;5.10;;
79697;SDS011;69168;42.708;23.286;2023-06-26T10:50:54;5.97;;;5.10;;
79697;SDS011;69168;42.708;23.286;2023-06-26T10:56:01;9.32;;;5.65;;
79697;SDS011;69168;42.708;23.286;2023-06-26T10:58:40;6.50;;;5.00;;
79697;SDS011;69168;42.708;23.286;2023-06-26T11:01:22;7.25;;;5.15;;
79697;SDS011;69168;42.708;23.286;2023-06-26T11:03:49;7.07;;;5.30;;
79697;SDS011;69168;42.708;23.286;2023-06-26T11:06:27;9.95;;;5.60;;
79697;SDS011;69168;42.708;23.286;2023-06-26T11:08:54;7.20;;;5.75;;
79697;SDS011;69168;42.708;23.286;2023-06-26T11:14:24;8.55;;;6.93;;
79697;SDS011;69168;42.708;23.286;2023-06-26T11:16:51;11.10;;;5.63;;
79697;SDS011;69168;42.708;23.286;2023-06-26T11:19:17;7.50;;;5.55;;
79697;SDS011;69168;42.708;23.286;2023-06-26T11:21:44;6.47;;;5.28;;
79697;SDS011;69168;42.708;23.286;2023-06-26T11:24:11;8.35;;;5.20;;
79697;SDS011;69168;42.708;23.286;2023-06-26T11:26:37;7.15;;;5.13;;
79697;SDS011;69168;42.708;23.286;2023-06-26T11:31:32;10.15;;;5.40;;
79697;SDS011;69168;42.708;23.286;2023-06-26T11:34:00;8.65;;;5.25;;
79697;SDS011;69168;42.708;23.286;2023-06-26T11:36:28;8.23;;;5.40;;
79697;SDS011;69168;42.708;23.286;2023-06-26T11:38:55;5.72;;;4.88;;
79697;SDS011;69168;42.708;23.286;2023-06-26T11:41:21;7.25;;;4.90;;
79697;SDS011;69168;42.708;23.286;2023-06-26T11:43:47;7.57;;;5.18;;
79697;SDS011;69168;42.708;23.286;2023-06-26T11:46:12;6.50;;;5.00;;
79697;SDS011;69168;42.708;23.286;2023-06-26T11:48:38;6.80;;;5.25;;
79697;SDS011;69168;42.708;23.286;2023-06-26T11:51:05;8.15;;;5.88;;
79697;SDS011;69168;42.708;23.286;2023-06-26T11:55:56;6.15;;;5.55;;
79697;SDS011;69168;42.708;23.286;2023-06-26T11:58:22;8.90;;;5.72;;
79697;SDS011;69168;42.708;23.286;2023-06-26T12:00:48;7.53;;;6.25;;
79697;SDS011;69168;42.708;23.286;2023-06-26T12:03:13;7.95;;;5.90;;
79697;SDS011;69168;42.708;23.286;2023-06-26T12:05:39;6.70;;;5.80;;
79697;SDS011;69168;42.708;23.286;2023-06-26T12:08:05;7.70;;;6.00;;
79697;SDS011;69168;42.708;23.286;2023-06-26T12:10:32;6.57;;;5.25;;
79697;SDS011;69168;42.708;23.286;2023-06-26T12:15:26;6.88;;;4.90;;
79697;SDS011;69168;42.708;23.286;2023-06-26T12:17:53;5.28;;;4.78;;
79697;SDS011;69168;42.708;23.286;2023-06-26T12:20:22;6.18;;;5.32;;
79697;SDS011;69168;42.708;23.286;2023-06-26T12:22:49;9.55;;;5.57;;
79697;SDS011;69168;42.708;23.286;2023-06-26T12:25:14;6.22;;;4.93;;
79697;SDS011;69168;42.708;23.286;2023-06-26T12:27:40;7.07;;;5.30;;
79697;SDS011;69168;42.708;23.286;2023-06-26T12:30:06;6.38;;;5.30;;
79697;SDS011;69168;42.708;23.286;2023-06-26T12:34:59;7.40;;;5.97;;
79697;SDS011;69168;42.708;23.286;2023-06-26T12:37:25;6.65;;;4.97;;
79697;SDS011;69168;42.708;23.286;2023-06-26T12:42:25;6.40;;;5.10;;
79697;SDS011;69168;42.708;23.286;2023-06-26T12:44:51;7.55;;;6.50;;
79697;SDS011;69168;42.708;23.286;2023-06-26T12:47:22;7.53;;;5.93;;
79697;SDS011;69168;42.708;23.286;2023-06-26T12:49:50;9.07;;;6.72;;
79697;SDS011;69168;42.708;23.286;2023-06-26T12:52:17;7.72;;;6.07;;
79697;SDS011;69168;42.708;23.286;2023-06-26T12:54:46;6.85;;;5.20;;
79697;SDS011;69168;42.708;23.286;2023-06-26T12:57:12;6.78;;;5.95;;
79697;SDS011;69168;42.708;23.286;2023-06-26T12:59:41;10.50;;;6.07;;
79697;SDS011;69168;42.708;23.286;2023-06-26T13:02:07;8.05;;;5.95;;
79697;SDS011;69168;42.708;23.286;2023-06-26T13:06:59;7.20;;;6.13;;
79697;SDS011;69168;42.708;23.286;2023-06-26T13:09:24;8.15;;;5.82;;
79697;SDS011;69168;42.708;23.286;2023-06-26T13:14:16;8.57;;;6.03;;
79697;SDS011;69168;42.708;23.286;2023-06-26T13:16:42;7.25;;;5.07;;
79697;SDS011;69168;42.708;23.286;2023-06-26T13:19:08;6.68;;;5.72;;
79697;SDS011;69168;42.708;23.286;2023-06-26T13:21:34;6.30;;;5.15;;
79697;SDS011;69168;42.708;23.286;2023-06-26T13:24:00;8.40;;;5.18;;
79697;SDS011;69168;42.708;23.286;2023-06-26T13:28:53;8.20;;;5.32;;
79697;SDS011;69168;42.708;23.286;2023-06-26T13:31:19;7.28;;;5.40;;
79697;SDS011;69168;42.708;23.286;2023-06-26T13:33:46;6.55;;;5.30;;
79697;SDS011;69168;42.708;23.286;2023-06-26T13:36:13;7.85;;;5.15;;
79697;SDS011;69168;42.708;23.286;2023-06-26T13:38:39;10.77;;;5.22;;
79697;SDS011;69168;42.708;23.286;2023-06-26T13:41:05;8.13;;;6.10;;
79697;SDS011;69168;42.708;23.286;2023-06-26T13:43:31;7.20;;;5.43;;
79697;SDS011;69168;42.708;23.286;2023-06-26T13:45:56;6.30;;;4.80;;
79697;SDS011;69168;42.708;23.286;2023-06-26T13:48:22;7.63;;;5.47;;
79697;SDS011;69168;42.708;23.286;2023-06-26T13:50:51;8.90;;;4.93;;
79697;SDS011;69168;42.708;23.286;2023-06-26T13:53:16;6.38;;;5.65;;
79697;SDS011;69168;42.708;23.286;2023-06-26T13:55:42;6.57;;;5.65;;
79697;SDS011;69168;42.708;23.286;2023-06-26T13:58:08;10.18;;;5.60;;
79697;SDS011;69168;42.708;23.286;2023-06-26T14:00:34;9.52;;;5.88;;
79697;SDS011;69168;42.708;23.286;2023-06-26T14:03:01;7.95;;;5.07;;
79697;SDS011;69168;42.708;23.286;2023-06-26T14:05:31;8.32;;;5.40;;
79697;SDS011;69168;42.708;23.286;2023-06-26T14:07:57;9.13;;;5.82;;
79697;SDS011;69168;42.708;23.286;2023-06-26T14:10:23;6.72;;;6.03;;
79697;SDS011;69168;42.708;23.286;2023-06-26T14:12:49;9.30;;;5.60;;
79697;SDS011;69168;42.708;23.286;2023-06-26T14:15:14;8.32;;;6.72;;
79697;SDS011;69168;42.708;23.286;2023-06-26T14:17:40;7.82;;;5.60;;
79697;SDS011;69168;42.708;23.286;2023-06-26T14:20:06;6.60;;;5.53;;
79697;SDS011;69168;42.708;23.286;2023-06-26T14:22:38;6.97;;;6.28;;
79697;SDS011;69168;42.708;23.286;2023-06-26T14:25:07;8.60;;;5.63;;
79697;SDS011;69168;42.708;23.286;2023-06-26T14:27:33;7.25;;;5.82;;
79697;SDS011;69168;42.708;23.286;2023-06-26T14:29:59;7.68;;;5.65;;
79697;SDS011;69168;42.708;23.286;2023-06-26T14:32:24;6.80;;;5.55;;
79697;SDS011;69168;42.708;23.286;2023-06-26T14:34:50;11.15;;;6.70;;
79697;SDS011;69168;42.708;23.286;2023-06-26T14:37:15;7.57;;;6.20;;
79697;SDS011;69168;42.708;23.286;2023-06-26T14:39:43;9.27;;;6.03;;
79697;SDS011;69168;42.708;23.286;2023-06-26T14:42:09;8.88;;;6.05;;
79697;SDS011;69168;42.708;23.286;2023-06-26T14:44:34;7.10;;;5.90;;
79697;SDS011;69168;42.708;23.286;2023-06-26T14:46:59;7.07;;;5.75;;
79697;SDS011;69168;42.708;23.286;2023-06-26T14:49:25;9.57;;;5.72;;
79697;SDS011;69168;42.708;23.286;2023-06-26T14:51:50;11.45;;;6.15;;
79697;SDS011;69168;42.708;23.286;2023-06-26T14:54:16;6.93;;;6.05;;
79697;SDS011;69168;42.708;23.286;2023-06-26T14:56:41;9.27;;;6.60;;
79697;SDS011;69168;42.708;23.286;2023-06-26T14:59:09;18.15;;;13.15;;
79697;SDS011;69168;42.708;23.286;2023-06-26T15:04:00;13.60;;;8.77;;
79697;SDS011;69168;42.708;23.286;2023-06-26T15:06:26;12.50;;;7.50;;
79697;SDS011;69168;42.708;23.286;2023-06-26T15:08:51;12.77;;;7.32;;
79697;SDS011;69168;42.708;23.286;2023-06-26T15:11:17;13.82;;;7.45;;